sensor_id;sensor_type;location;lat;lon;timestamp;pressure;altitude;pressure_sealevel;temperature;humidity
59545;BME280;45368;55.002;-1.592;2023-06-22T00:01:26;100996.06;;;19.53;47.16
59545;BME280;45368;55.002;-1.592;2023-06-22T00:03:54;100987.34;;;20.20;46.23
59545;BME280;45368;55.002;-1.592;2023-06-22T00:06:22;100990.88;;;20.78;45.21
59545;BME280;45368;55.002;-1.592;2023-06-22T00:08:49;100992.38;;;20.77;44.86
59545;BME280;45368;55.002;-1.592;2023-06-22T00:11:16;100991.44;;;20.48;44.98
59545;BME280;45368;55.002;-1.592;2023-06-22T00:13:44;100996.41;;;19.96;45.57
59545;BME280;45368;55.002;-1.592;2023-06-22T00:16:12;100996.63;;;19.43;46.66
59545;BME280;45368;55.002;-1.592;2023-06-22T00:18:40;100995.41;;;19.91;45.67
59545;BME280;45368;55.002;-1.592;2023-06-22T00:21:07;100993.14;;;20.39;45.15
59545;BME280;45368;55.002;-1.592;2023-06-22T00:23:34;101000.79;;;18.72;47.66
59545;BME280;45368;55.002;-1.592;2023-06-22T00:26:02;101004.49;;;17.41;50.23
59545;BME280;45368;55.002;-1.592;2023-06-22T00:28:29;101007.55;;;17.42;50.65
59545;BME280;45368;55.002;-1.592;2023-06-22T00:30:56;101004.96;;;18.84;48.21
59545;BME280;45368;55.002;-1.592;2023-06-22T00:33:23;101005.97;;;19.38;46.80
59545;BME280;45368;55.002;-1.592;2023-06-22T00:35:51;101008.78;;;19.51;46.30
59545;BME280;45368;55.002;-1.592;2023-06-22T00:38:18;101006.63;;;19.20;46.61
59545;BME280;45368;55.002;-1.592;2023-06-22T00:40:45;101007.53;;;19.45;46.19
59545;BME280;45368;55.002;-1.592;2023-06-22T00:43:12;101005.02;;;18.62;47.92
59545;BME280;45368;55.002;-1.592;2023-06-22T00:45:39;101008.15;;;19.57;46.30
59545;BME280;45368;55.002;-1.592;2023-06-22T00:48:07;101010.85;;;19.96;45.10
59545;BME280;45368;55.002;-1.592;2023-06-22T00:50:36;101014.23;;;19.56;45.88
59545;BME280;45368;55.002;-1.592;2023-06-22T00:53:05;101014.73;;;18.82;46.57
59545;BME280;45368;55.002;-1.592;2023-06-22T00:55:33;101017.34;;;19.03;47.02
59545;BME280;45368;55.002;-1.592;2023-06-22T00:58:01;101015.21;;;19.40;46.50
59545;BME280;45368;55.002;-1.592;2023-06-22T01:00:28;101020.46;;;19.38;45.95
59545;BME280;45368;55.002;-1.592;2023-06-22T01:02:56;101023.69;;;19.37;46.63
59545;BME280;45368;55.002;-1.592;2023-06-22T01:05:23;101031.28;;;17.64;48.90
59545;BME280;45368;55.002;-1.592;2023-06-22T01:08:03;101036.80;;;16.57;51.69
59545;BME280;45368;55.002;-1.592;2023-06-22T01:10:38;101029.31;;;18.57;48.56
59545;BME280;45368;55.002;-1.592;2023-06-22T01:13:16;101026.10;;;19.38;46.71
59545;BME280;45368;55.002;-1.592;2023-06-22T01:15:49;101026.12;;;19.38;46.11
59545;BME280;45368;55.002;-1.592;2023-06-22T01:18:18;101029.46;;;19.04;46.48
59545;BME280;45368;55.002;-1.592;2023-06-22T01:20:48;101027.36;;;19.49;45.89
59545;BME280;45368;55.002;-1.592;2023-06-22T01:23:25;101027.14;;;19.83;45.31
59545;BME280;45368;55.002;-1.592;2023-06-22T01:26:02;101029.33;;;19.57;45.79
59545;BME280;45368;55.002;-1.592;2023-06-22T01:28:43;101032.06;;;19.97;44.85
59545;BME280;45368;55.002;-1.592;2023-06-22T01:31:13;101037.88;;;19.50;45.22
59545;BME280;45368;55.002;-1.592;2023-06-22T01:33:43;101039.73;;;18.80;46.65
59545;BME280;45368;55.002;-1.592;2023-06-22T01:36:13;101048.96;;;17.54;49.11
59545;BME280;45368;55.002;-1.592;2023-06-22T01:38:42;101049.45;;;18.23;47.93
59545;BME280;45368;55.002;-1.592;2023-06-22T01:41:12;101051.87;;;18.80;46.69
59545;BME280;45368;55.002;-1.592;2023-06-22T01:43:40;101053.96;;;19.66;45.57
59545;BME280;45368;55.002;-1.592;2023-06-22T01:46:08;101052.35;;;19.96;44.96
59545;BME280;45368;55.002;-1.592;2023-06-22T01:48:35;101048.73;;;19.79;44.52
59545;BME280;45368;55.002;-1.592;2023-06-22T01:51:03;101052.40;;;19.29;46.00
59545;BME280;45368;55.002;-1.592;2023-06-22T01:53:30;101058.71;;;18.71;46.75
59545;BME280;45368;55.002;-1.592;2023-06-22T01:55:58;101063.22;;;18.78;47.16
59545;BME280;45368;55.002;-1.592;2023-06-22T01:58:28;101066.04;;;19.04;46.88
59545;BME280;45368;55.002;-1.592;2023-06-22T02:00:59;101065.76;;;18.53;47.52
59545;BME280;45368;55.002;-1.592;2023-06-22T02:03:32;101068.08;;;18.94;46.77
59545;BME280;45368;55.002;-1.592;2023-06-22T02:06:04;101068.80;;;18.90;47.24
59545;BME280;45368;55.002;-1.592;2023-06-22T02:08:38;101075.07;;;19.35;46.56
59545;BME280;45368;55.002;-1.592;2023-06-22T02:11:08;101076.16;;;19.12;46.60
59545;BME280;45368;55.002;-1.592;2023-06-22T02:13:36;101075.97;;;19.60;45.88
59545;BME280;45368;55.002;-1.592;2023-06-22T02:16:04;101081.71;;;19.09;46.64
59545;BME280;45368;55.002;-1.592;2023-06-22T02:18:32;101086.98;;;18.19;48.28
59545;BME280;45368;55.002;-1.592;2023-06-22T02:20:59;101091.36;;;17.79;49.09
59545;BME280;45368;55.002;-1.592;2023-06-22T02:23:26;101092.92;;;17.78;49.20
59545;BME280;45368;55.002;-1.592;2023-06-22T02:25:54;101095.48;;;18.27;48.31
59545;BME280;45368;55.002;-1.592;2023-06-22T02:28:21;101094.21;;;18.70;47.28
59545;BME280;45368;55.002;-1.592;2023-06-22T02:30:49;101097.32;;;18.81;47.09
59545;BME280;45368;55.002;-1.592;2023-06-22T02:33:16;101093.88;;;19.35;45.94
59545;BME280;45368;55.002;-1.592;2023-06-22T02:35:43;101094.06;;;18.66;47.13
59545;BME280;45368;55.002;-1.592;2023-06-22T02:38:11;101091.36;;;19.11;46.66
59545;BME280;45368;55.002;-1.592;2023-06-22T02:40:38;101092.10;;;19.15;46.49
59545;BME280;45368;55.002;-1.592;2023-06-22T02:43:05;101099.54;;;18.07;47.76
59545;BME280;45368;55.002;-1.592;2023-06-22T02:45:32;101099.36;;;18.46;47.44
59545;BME280;45368;55.002;-1.592;2023-06-22T02:47:59;101099.72;;;17.98;48.36
59545;BME280;45368;55.002;-1.592;2023-06-22T02:50:27;101101.50;;;18.26;48.35
59545;BME280;45368;55.002;-1.592;2023-06-22T02:52:54;101108.57;;;17.55;49.18
59545;BME280;45368;55.002;-1.592;2023-06-22T02:55:21;101107.42;;;17.70;48.53
59545;BME280;45368;55.002;-1.592;2023-06-22T02:57:48;101105.40;;;18.83;47.43
59545;BME280;45368;55.002;-1.592;2023-06-22T03:00:15;101101.17;;;18.37;47.30
59545;BME280;45368;55.002;-1.592;2023-06-22T03:02:43;101101.00;;;18.44;47.20
59545;BME280;45368;55.002;-1.592;2023-06-22T03:05:11;101097.07;;;19.04;46.53
59545;BME280;45368;55.002;-1.592;2023-06-22T03:07:38;101098.41;;;18.51;47.14
59545;BME280;45368;55.002;-1.592;2023-06-22T03:10:07;101098.41;;;18.48;47.09
59545;BME280;45368;55.002;-1.592;2023-06-22T03:12:34;101099.98;;;18.36;47.17
59545;BME280;45368;55.002;-1.592;2023-06-22T03:15:02;101107.11;;;17.30;48.64
59545;BME280;45368;55.002;-1.592;2023-06-22T03:17:29;101100.66;;;18.91;46.92
59545;BME280;45368;55.002;-1.592;2023-06-22T03:19:56;101105.16;;;18.78;46.11
59545;BME280;45368;55.002;-1.592;2023-06-22T03:22:23;101110.51;;;17.90;47.67
59545;BME280;45368;55.002;-1.592;2023-06-22T03:24:50;101121.72;;;15.82;52.01
59545;BME280;45368;55.002;-1.592;2023-06-22T03:27:18;101123.93;;;15.72;53.13
59545;BME280;45368;55.002;-1.592;2023-06-22T03:29:45;101128.93;;;15.11;54.43
59545;BME280;45368;55.002;-1.592;2023-06-22T03:32:12;101130.72;;;14.52;56.28
59545;BME280;45368;55.002;-1.592;2023-06-22T03:34:39;101134.84;;;14.21;57.23
59545;BME280;45368;55.002;-1.592;2023-06-22T03:37:06;101133.50;;;16.53;52.38
59545;BME280;45368;55.002;-1.592;2023-06-22T03:39:34;101122.60;;;17.37;50.18
59545;BME280;45368;55.002;-1.592;2023-06-22T03:42:01;101125.23;;;17.90;48.61
59545;BME280;45368;55.002;-1.592;2023-06-22T03:44:28;101124.99;;;18.07;48.34
59545;BME280;45368;55.002;-1.592;2023-06-22T03:46:55;101128.10;;;18.10;47.94
59545;BME280;45368;55.002;-1.592;2023-06-22T03:49:23;101128.42;;;18.19;48.11
59545;BME280;45368;55.002;-1.592;2023-06-22T03:51:50;101124.31;;;17.48;48.88
59545;BME280;45368;55.002;-1.592;2023-06-22T03:54:17;101126.81;;;17.10;48.87
59545;BME280;45368;55.002;-1.592;2023-06-22T03:56:44;101132.38;;;16.31;50.78
59545;BME280;45368;55.002;-1.592;2023-06-22T03:59:11;101128.86;;;17.09;49.29
59545;BME280;45368;55.002;-1.592;2023-06-22T04:01:38;101133.60;;;16.34;50.12
59545;BME280;45368;55.002;-1.592;2023-06-22T04:04:05;101141.24;;;15.78;52.06
59545;BME280;45368;55.002;-1.592;2023-06-22T04:06:32;101142.57;;;16.48;51.08
59545;BME280;45368;55.002;-1.592;2023-06-22T04:09:00;101141.64;;;17.74;48.32
59545;BME280;45368;55.002;-1.592;2023-06-22T04:11:27;101142.71;;;18.01;47.96
59545;BME280;45368;55.002;-1.592;2023-06-22T04:13:53;101144.62;;;17.36;48.12
59545;BME280;45368;55.002;-1.592;2023-06-22T04:16:20;101136.72;;;18.10;47.46
59545;BME280;45368;55.002;-1.592;2023-06-22T04:18:48;101134.17;;;18.37;46.68
59545;BME280;45368;55.002;-1.592;2023-06-22T04:21:14;101131.97;;;18.24;46.28
59545;BME280;45368;55.002;-1.592;2023-06-22T04:23:41;101128.23;;;18.79;45.88
59545;BME280;45368;55.002;-1.592;2023-06-22T04:26:08;101132.02;;;18.74;45.14
59545;BME280;45368;55.002;-1.592;2023-06-22T04:28:36;101138.26;;;18.84;45.05
59545;BME280;45368;55.002;-1.592;2023-06-22T04:31:03;101136.86;;;18.58;46.21
59545;BME280;45368;55.002;-1.592;2023-06-22T04:33:31;101146.52;;;17.58;47.72
59545;BME280;45368;55.002;-1.592;2023-06-22T04:35:59;101142.73;;;18.11;46.55
59545;BME280;45368;55.002;-1.592;2023-06-22T04:38:27;101140.81;;;19.34;45.00
59545;BME280;45368;55.002;-1.592;2023-06-22T04:40:54;101145.90;;;18.89;45.03
59545;BME280;45368;55.002;-1.592;2023-06-22T04:43:22;101150.50;;;18.74;45.08
59545;BME280;45368;55.002;-1.592;2023-06-22T04:45:49;101149.86;;;18.45;45.08
59545;BME280;45368;55.002;-1.592;2023-06-22T04:48:15;101152.52;;;18.33;45.81
59545;BME280;45368;55.002;-1.592;2023-06-22T04:50:42;101162.08;;;16.53;49.38
59545;BME280;45368;55.002;-1.592;2023-06-22T04:53:10;101162.25;;;17.03;48.81
59545;BME280;45368;55.002;-1.592;2023-06-22T04:55:38;101159.59;;;17.39;47.95
59545;BME280;45368;55.002;-1.592;2023-06-22T04:58:08;101160.99;;;17.43;48.28
59545;BME280;45368;55.002;-1.592;2023-06-22T05:00:35;101166.13;;;17.85;47.42
59545;BME280;45368;55.002;-1.592;2023-06-22T05:03:02;101163.78;;;17.12;48.61
59545;BME280;45368;55.002;-1.592;2023-06-22T05:05:29;101162.82;;;17.34;48.84
59545;BME280;45368;55.002;-1.592;2023-06-22T05:07:57;101161.93;;;17.73;47.54
59545;BME280;45368;55.002;-1.592;2023-06-22T05:10:25;101164.14;;;17.88;47.46
59545;BME280;45368;55.002;-1.592;2023-06-22T05:12:52;101170.29;;;16.19;50.58
59545;BME280;45368;55.002;-1.592;2023-06-22T05:15:19;101173.95;;;17.14;49.03
59545;BME280;45368;55.002;-1.592;2023-06-22T05:17:46;101177.65;;;17.23;49.04
59545;BME280;45368;55.002;-1.592;2023-06-22T05:20:13;101179.34;;;17.24;49.02
59545;BME280;45368;55.002;-1.592;2023-06-22T05:22:40;101175.84;;;17.82;48.49
59545;BME280;45368;55.002;-1.592;2023-06-22T05:25:09;101174.21;;;17.82;48.51
59545;BME280;45368;55.002;-1.592;2023-06-22T05:27:37;101170.02;;;17.38;49.78
59545;BME280;45368;55.002;-1.592;2023-06-22T05:30:07;101170.15;;;16.84;50.42
59545;BME280;45368;55.002;-1.592;2023-06-22T05:32:35;101174.12;;;17.11;50.21
59545;BME280;45368;55.002;-1.592;2023-06-22T05:35:03;101180.72;;;16.79;50.97
59545;BME280;45368;55.002;-1.592;2023-06-22T05:37:30;101182.19;;;17.50;49.88
59545;BME280;45368;55.002;-1.592;2023-06-22T05:39:58;101182.36;;;17.07;51.16
59545;BME280;45368;55.002;-1.592;2023-06-22T05:42:25;101175.20;;;18.19;48.52
59545;BME280;45368;55.002;-1.592;2023-06-22T05:44:52;101174.28;;;17.94;49.24
59545;BME280;45368;55.002;-1.592;2023-06-22T05:47:20;101179.13;;;17.60;49.94
59545;BME280;45368;55.002;-1.592;2023-06-22T05:49:48;101174.89;;;17.78;49.52
59545;BME280;45368;55.002;-1.592;2023-06-22T05:52:14;101174.09;;;17.53;50.91
59545;BME280;45368;55.002;-1.592;2023-06-22T05:54:41;101177.73;;;17.30;51.81
59545;BME280;45368;55.002;-1.592;2023-06-22T05:57:09;101173.87;;;17.38;50.83
59545;BME280;45368;55.002;-1.592;2023-06-22T05:59:36;101173.89;;;17.80;51.11
59545;BME280;45368;55.002;-1.592;2023-06-22T06:02:04;101177.80;;;17.41;52.19
59545;BME280;45368;55.002;-1.592;2023-06-22T06:04:32;101178.61;;;17.30;51.98
59545;BME280;45368;55.002;-1.592;2023-06-22T06:06:59;101176.78;;;17.88;51.05
59545;BME280;45368;55.002;-1.592;2023-06-22T06:09:26;101173.52;;;17.26;52.40
59545;BME280;45368;55.002;-1.592;2023-06-22T06:11:53;101173.00;;;17.88;51.71
59545;BME280;45368;55.002;-1.592;2023-06-22T06:14:20;101176.08;;;16.90;53.68
59545;BME280;45368;55.002;-1.592;2023-06-22T06:16:48;101177.09;;;17.22;52.67
59545;BME280;45368;55.002;-1.592;2023-06-22T06:19:16;101177.48;;;17.14;53.27
59545;BME280;45368;55.002;-1.592;2023-06-22T06:21:42;101173.58;;;17.59;52.15
59545;BME280;45368;55.002;-1.592;2023-06-22T06:24:09;101177.55;;;17.09;53.36
59545;BME280;45368;55.002;-1.592;2023-06-22T06:26:36;101173.60;;;17.28;54.00
59545;BME280;45368;55.002;-1.592;2023-06-22T06:29:03;101170.47;;;17.07;54.24
59545;BME280;45368;55.002;-1.592;2023-06-22T06:31:31;101173.30;;;16.66;55.05
59545;BME280;45368;55.002;-1.592;2023-06-22T06:33:58;101171.68;;;17.06;54.36
59545;BME280;45368;55.002;-1.592;2023-06-22T06:36:25;101171.06;;;17.70;53.51
59545;BME280;45368;55.002;-1.592;2023-06-22T06:38:53;101175.91;;;17.23;53.52
59545;BME280;45368;55.002;-1.592;2023-06-22T06:41:20;101184.12;;;17.24;53.54
59545;BME280;45368;55.002;-1.592;2023-06-22T06:43:47;101179.70;;;17.75;53.02
59545;BME280;45368;55.002;-1.592;2023-06-22T06:46:14;101187.18;;;17.46;53.14
59545;BME280;45368;55.002;-1.592;2023-06-22T06:48:41;101184.35;;;17.68;53.07
59545;BME280;45368;55.002;-1.592;2023-06-22T06:51:09;101192.62;;;16.87;55.39
59545;BME280;45368;55.002;-1.592;2023-06-22T06:53:38;101192.01;;;16.94;55.01
59545;BME280;45368;55.002;-1.592;2023-06-22T06:56:05;101195.34;;;17.61;53.90
59545;BME280;45368;55.002;-1.592;2023-06-22T06:58:33;101199.01;;;17.38;53.57
59545;BME280;45368;55.002;-1.592;2023-06-22T07:01:00;101205.67;;;17.48;53.54
59545;BME280;45368;55.002;-1.592;2023-06-22T07:03:27;101210.33;;;16.93;54.86
59545;BME280;45368;55.002;-1.592;2023-06-22T07:05:55;101208.33;;;17.35;53.26
59545;BME280;45368;55.002;-1.592;2023-06-22T07:08:22;101209.07;;;17.73;53.08
59545;BME280;45368;55.002;-1.592;2023-06-22T07:10:48;101209.84;;;18.41;51.14
59545;BME280;45368;55.002;-1.592;2023-06-22T07:13:15;101214.17;;;17.79;52.05
59545;BME280;45368;55.002;-1.592;2023-06-22T07:15:43;101211.70;;;18.19;50.98
59545;BME280;45368;55.002;-1.592;2023-06-22T07:18:10;101218.42;;;17.75;51.80
59545;BME280;45368;55.002;-1.592;2023-06-22T07:20:37;101219.62;;;17.39;53.60
59545;BME280;45368;55.002;-1.592;2023-06-22T07:23:05;101222.61;;;17.41;53.16
59545;BME280;45368;55.002;-1.592;2023-06-22T07:25:32;101223.78;;;18.19;52.36
59545;BME280;45368;55.002;-1.592;2023-06-22T07:28:01;101216.51;;;17.97;52.05
59545;BME280;45368;55.002;-1.592;2023-06-22T07:30:28;101212.70;;;18.02;52.47
59545;BME280;45368;55.002;-1.592;2023-06-22T07:32:57;101216.47;;;17.87;51.46
59545;BME280;45368;55.002;-1.592;2023-06-22T07:35:25;101217.73;;;18.19;51.07
59545;BME280;45368;55.002;-1.592;2023-06-22T07:37:52;101222.30;;;18.17;51.27
59545;BME280;45368;55.002;-1.592;2023-06-22T07:40:19;101223.77;;;17.55;52.17
59545;BME280;45368;55.002;-1.592;2023-06-22T07:42:45;101229.18;;;16.93;53.31
59545;BME280;45368;55.002;-1.592;2023-06-22T07:45:12;101225.52;;;17.72;52.43
59545;BME280;45368;55.002;-1.592;2023-06-22T07:47:40;101222.28;;;18.39;50.60
59545;BME280;45368;55.002;-1.592;2023-06-22T07:50:07;101224.54;;;17.68;51.97
59545;BME280;45368;55.002;-1.592;2023-06-22T07:52:35;101225.58;;;17.73;51.20
59545;BME280;45368;55.002;-1.592;2023-06-22T07:55:03;101222.10;;;18.07;50.89
59545;BME280;45368;55.002;-1.592;2023-06-22T07:57:30;101219.58;;;18.99;48.89
59545;BME280;45368;55.002;-1.592;2023-06-22T07:59:58;101224.74;;;18.87;49.40
59545;BME280;45368;55.002;-1.592;2023-06-22T08:02:25;101220.58;;;20.17;46.92
59545;BME280;45368;55.002;-1.592;2023-06-22T08:04:53;101222.68;;;20.40;45.13
59545;BME280;45368;55.002;-1.592;2023-06-22T08:07:20;101223.64;;;20.32;44.54
59545;BME280;45368;55.002;-1.592;2023-06-22T08:09:48;101225.51;;;20.49;44.69
59545;BME280;45368;55.002;-1.592;2023-06-22T08:12:16;101222.48;;;20.75;42.85
59545;BME280;45368;55.002;-1.592;2023-06-22T08:14:44;101217.94;;;19.97;42.59
59545;BME280;45368;55.002;-1.592;2023-06-22T08:17:11;101213.88;;;20.57;42.30
59545;BME280;45368;55.002;-1.592;2023-06-22T08:19:40;101215.67;;;20.50;43.30
59545;BME280;45368;55.002;-1.592;2023-06-22T08:22:07;101214.12;;;20.44;44.08
59545;BME280;45368;55.002;-1.592;2023-06-22T08:24:35;101218.04;;;19.34;43.98
59545;BME280;45368;55.002;-1.592;2023-06-22T08:27:04;101217.67;;;19.90;44.96
59545;BME280;45368;55.002;-1.592;2023-06-22T08:29:34;101224.15;;;19.09;44.74
59545;BME280;45368;55.002;-1.592;2023-06-22T08:32:00;101221.14;;;19.86;43.15
59545;BME280;45368;55.002;-1.592;2023-06-22T08:34:29;101223.09;;;20.37;43.96
59545;BME280;45368;55.002;-1.592;2023-06-22T08:36:57;101227.71;;;21.31;42.23
59545;BME280;45368;55.002;-1.592;2023-06-22T08:39:24;101232.04;;;20.23;42.44
59545;BME280;45368;55.002;-1.592;2023-06-22T08:41:51;101232.84;;;20.15;42.53
59545;BME280;45368;55.002;-1.592;2023-06-22T08:44:19;101234.83;;;19.96;42.87
59545;BME280;45368;55.002;-1.592;2023-06-22T08:46:46;101240.07;;;20.41;42.40
59545;BME280;45368;55.002;-1.592;2023-06-22T08:49:13;101244.79;;;20.21;42.74
59545;BME280;45368;55.002;-1.592;2023-06-22T08:51:41;101241.23;;;19.53;43.34
59545;BME280;45368;55.002;-1.592;2023-06-22T08:54:09;101242.59;;;19.94;42.39
59545;BME280;45368;55.002;-1.592;2023-06-22T08:56:37;101242.88;;;20.80;42.15
59545;BME280;45368;55.002;-1.592;2023-06-22T08:59:04;101242.01;;;21.37;41.05
59545;BME280;45368;55.002;-1.592;2023-06-22T09:01:31;101241.51;;;20.76;40.58
59545;BME280;45368;55.002;-1.592;2023-06-22T09:03:58;101237.83;;;20.64;39.42
59545;BME280;45368;55.002;-1.592;2023-06-22T09:06:25;101236.39;;;21.18;39.84
59545;BME280;45368;55.002;-1.592;2023-06-22T09:08:53;101234.03;;;21.85;37.80
59545;BME280;45368;55.002;-1.592;2023-06-22T09:11:21;101234.03;;;22.21;39.02
59545;BME280;45368;55.002;-1.592;2023-06-22T09:13:48;101235.94;;;22.09;38.24
59545;BME280;45368;55.002;-1.592;2023-06-22T09:16:16;101239.91;;;20.95;38.15
59545;BME280;45368;55.002;-1.592;2023-06-22T09:18:47;101238.90;;;22.17;38.11
59545;BME280;45368;55.002;-1.592;2023-06-22T09:21:14;101235.33;;;22.19;36.77
59545;BME280;45368;55.002;-1.592;2023-06-22T09:23:41;101231.19;;;22.44;35.95
59545;BME280;45368;55.002;-1.592;2023-06-22T09:26:10;101237.11;;;21.03;38.50
59545;BME280;45368;55.002;-1.592;2023-06-22T09:28:37;101241.39;;;21.34;39.69
59545;BME280;45368;55.002;-1.592;2023-06-22T09:31:04;101239.55;;;21.29;38.32
59545;BME280;45368;55.002;-1.592;2023-06-22T09:33:32;101239.48;;;21.40;38.15
59545;BME280;45368;55.002;-1.592;2023-06-22T09:36:00;101238.51;;;21.58;37.72
59545;BME280;45368;55.002;-1.592;2023-06-22T09:38:27;101240.96;;;21.28;38.21
59545;BME280;45368;55.002;-1.592;2023-06-22T09:40:55;101242.05;;;20.65;38.00
59545;BME280;45368;55.002;-1.592;2023-06-22T09:43:22;101242.74;;;21.13;37.86
59545;BME280;45368;55.002;-1.592;2023-06-22T09:45:49;101241.17;;;20.44;38.58
59545;BME280;45368;55.002;-1.592;2023-06-22T09:48:16;101237.30;;;20.88;39.26
59545;BME280;45368;55.002;-1.592;2023-06-22T09:50:44;101240.62;;;20.78;38.37
59545;BME280;45368;55.002;-1.592;2023-06-22T09:53:12;101242.96;;;21.25;37.75
59545;BME280;45368;55.002;-1.592;2023-06-22T09:55:39;101239.92;;;21.05;37.58
59545;BME280;45368;55.002;-1.592;2023-06-22T09:58:07;101243.01;;;20.25;40.11
59545;BME280;45368;55.002;-1.592;2023-06-22T10:00:34;101242.51;;;20.77;39.14
59545;BME280;45368;55.002;-1.592;2023-06-22T10:03:03;101243.89;;;20.95;38.25
59545;BME280;45368;55.002;-1.592;2023-06-22T10:05:30;101245.30;;;20.37;38.14
59545;BME280;45368;55.002;-1.592;2023-06-22T10:07:58;101245.86;;;21.18;37.75
59545;BME280;45368;55.002;-1.592;2023-06-22T10:10:26;101240.64;;;20.99;38.02
59545;BME280;45368;55.002;-1.592;2023-06-22T10:12:55;101239.16;;;21.49;37.24
59545;BME280;45368;55.002;-1.592;2023-06-22T10:15:24;101237.26;;;21.84;35.90
59545;BME280;45368;55.002;-1.592;2023-06-22T10:17:51;101239.53;;;21.90;35.80
59545;BME280;45368;55.002;-1.592;2023-06-22T10:20:19;101245.22;;;21.27;36.16
59545;BME280;45368;55.002;-1.592;2023-06-22T10:22:46;101233.89;;;22.93;35.25
59545;BME280;45368;55.002;-1.592;2023-06-22T10:25:14;101235.64;;;22.26;35.41
59545;BME280;45368;55.002;-1.592;2023-06-22T10:27:41;101231.00;;;23.13;34.34
59545;BME280;45368;55.002;-1.592;2023-06-22T10:30:09;101234.28;;;22.53;33.76
59545;BME280;45368;55.002;-1.592;2023-06-22T10:32:38;101234.09;;;22.22;33.50
59545;BME280;45368;55.002;-1.592;2023-06-22T10:35:06;101237.10;;;22.88;34.04
59545;BME280;45368;55.002;-1.592;2023-06-22T10:37:34;101239.84;;;22.05;35.81
59545;BME280;45368;55.002;-1.592;2023-06-22T10:40:01;101235.64;;;22.40;35.35
59545;BME280;45368;55.002;-1.592;2023-06-22T10:42:29;101240.14;;;21.97;35.49
59545;BME280;45368;55.002;-1.592;2023-06-22T10:44:56;101229.89;;;22.88;33.60
59545;BME280;45368;55.002;-1.592;2023-06-22T10:47:24;101233.23;;;22.10;35.93
59545;BME280;45368;55.002;-1.592;2023-06-22T10:49:51;101237.29;;;21.92;34.42
59545;BME280;45368;55.002;-1.592;2023-06-22T10:52:19;101240.35;;;21.29;35.23
59545;BME280;45368;55.002;-1.592;2023-06-22T10:54:47;101238.77;;;22.40;35.52
59545;BME280;45368;55.002;-1.592;2023-06-22T10:57:15;101237.99;;;22.69;33.13
59545;BME280;45368;55.002;-1.592;2023-06-22T10:59:42;101232.58;;;24.14;32.41
59545;BME280;45368;55.002;-1.592;2023-06-22T11:02:10;101232.16;;;26.80;28.67
59545;BME280;45368;55.002;-1.592;2023-06-22T11:04:37;101218.76;;;29.70;25.15
59545;BME280;45368;55.002;-1.592;2023-06-22T11:07:05;101210.44;;;33.11;21.69
59545;BME280;45368;55.002;-1.592;2023-06-22T11:09:33;101208.52;;;34.54;20.44
59545;BME280;45368;55.002;-1.592;2023-06-22T11:12:00;101208.24;;;34.46;19.25
59545;BME280;45368;55.002;-1.592;2023-06-22T11:14:28;101214.95;;;34.17;19.26
59545;BME280;45368;55.002;-1.592;2023-06-22T11:16:55;101216.16;;;37.20;16.42
59545;BME280;45368;55.002;-1.592;2023-06-22T11:19:23;101221.39;;;35.62;17.85
59545;BME280;45368;55.002;-1.592;2023-06-22T11:21:51;101223.63;;;36.38;17.56
59545;BME280;45368;55.002;-1.592;2023-06-22T11:24:18;101227.14;;;36.06;16.98
59545;BME280;45368;55.002;-1.592;2023-06-22T11:26:46;101227.72;;;35.67;17.04
59545;BME280;45368;55.002;-1.592;2023-06-22T11:29:13;101221.81;;;36.90;16.09
59545;BME280;45368;55.002;-1.592;2023-06-22T11:31:41;101231.03;;;35.91;16.78
59545;BME280;45368;55.002;-1.592;2023-06-22T11:34:09;101223.30;;;36.56;15.93
59545;BME280;45368;55.002;-1.592;2023-06-22T11:36:36;101222.18;;;34.16;17.55
59545;BME280;45368;55.002;-1.592;2023-06-22T11:39:04;101222.98;;;32.76;20.24
59545;BME280;45368;55.002;-1.592;2023-06-22T11:41:31;101224.56;;;35.06;20.13
59545;BME280;45368;55.002;-1.592;2023-06-22T11:43:59;101228.84;;;33.39;18.70
59545;BME280;45368;55.002;-1.592;2023-06-22T11:46:27;101224.92;;;34.42;17.67
59545;BME280;45368;55.002;-1.592;2023-06-22T11:48:54;101217.43;;;37.68;15.85
59545;BME280;45368;55.002;-1.592;2023-06-22T11:51:22;101230.91;;;33.58;17.84
59545;BME280;45368;55.002;-1.592;2023-06-22T11:53:49;101230.97;;;34.55;20.57
59545;BME280;45368;55.002;-1.592;2023-06-22T11:56:17;101232.78;;;34.25;21.26
59545;BME280;45368;55.002;-1.592;2023-06-22T11:58:45;101236.10;;;33.73;21.08
59545;BME280;45368;55.002;-1.592;2023-06-22T12:01:12;101244.50;;;32.20;23.03
59545;BME280;45368;55.002;-1.592;2023-06-22T12:03:40;101257.19;;;27.90;26.45
59545;BME280;45368;55.002;-1.592;2023-06-22T12:06:09;101256.57;;;27.77;27.22
59545;BME280;45368;55.002;-1.592;2023-06-22T12:08:36;101260.72;;;26.76;28.99
59545;BME280;45368;55.002;-1.592;2023-06-22T12:11:04;101258.52;;;26.47;30.32
59545;BME280;45368;55.002;-1.592;2023-06-22T12:13:31;101260.88;;;26.38;29.88
59545;BME280;45368;55.002;-1.592;2023-06-22T12:15:58;101263.33;;;25.51;31.53
59545;BME280;45368;55.002;-1.592;2023-06-22T12:18:26;101266.93;;;24.93;31.70
59545;BME280;45368;55.002;-1.592;2023-06-22T12:20:53;101266.85;;;24.05;33.48
59545;BME280;45368;55.002;-1.592;2023-06-22T12:23:21;101265.59;;;22.56;35.71
59545;BME280;45368;55.002;-1.592;2023-06-22T12:25:49;101260.57;;;23.47;35.11
59545;BME280;45368;55.002;-1.592;2023-06-22T12:28:16;101261.50;;;23.71;33.80
59545;BME280;45368;55.002;-1.592;2023-06-22T12:30:44;101268.35;;;23.54;33.96
59545;BME280;45368;55.002;-1.592;2023-06-22T12:33:11;101265.51;;;23.17;34.55
59545;BME280;45368;55.002;-1.592;2023-06-22T12:35:39;101265.59;;;22.86;35.23
59545;BME280;45368;55.002;-1.592;2023-06-22T12:38:07;101262.54;;;23.33;34.24
59545;BME280;45368;55.002;-1.592;2023-06-22T12:40:34;101269.03;;;22.64;35.40
59545;BME280;45368;55.002;-1.592;2023-06-22T12:43:01;101260.65;;;22.07;36.10